Time;durP1;ratioP1;P1;durP2;ratioP2;P2;SDS_P1;SDS_P2;PMS_P1;PMS_P2;Temp;Humidity;BMP_temperature;BMP_pressure;BME280_temperature;BME280_humidity;BME280_pressure;Samples;Min_cycle;Max_cycle;Signal;HPM_P1;HPM_P2
2023/04/24 00:02:17;;;;;;;;;2.00;1.00;;;;;;;;5018459;28;45408;-80
2023/04/24 00:04:45;;;;;;;;;4.50;0.50;;;;;;;;5018517;28;45399;-80
2023/04/24 00:07:11;;;;;;;;;1.00;1.00;;;;;;;;5018358;28;45375;-80
2023/04/24 00:09:36;;;;;;;;;4.00;1.00;;;;;;;;5018027;28;46137;-80
2023/04/24 00:12:04;;;;;;;;;1.00;1.00;;;;;;;;5017658;28;45396;-80
2023/04/24 00:14:29;;;;;;;;;0.50;0.00;;;;;;;;5018185;28;45475;-80
2023/04/24 00:16:54;;;;;;;;;0.50;0.50;;;;;;;;5018219;28;45351;-79
2023/04/24 00:19:21;;;;;;;;;1.33;0.00;;;;;;;;5017961;28;45403;-80
2023/04/24 00:21:46;;;;;;;;;2.00;0.00;;;;;;;;5018031;28;45272;-78
2023/04/24 00:24:11;;;;;;;;;1.00;1.00;;;;;;;;5018118;28;45327;-80
2023/04/24 00:26:36;;;;;;;;;0.67;0.67;;;;;;;;5017829;28;45458;-78
2023/04/24 00:29:02;;;;;;;;;1.00;0.00;;;;;;;;5018015;28;46541;-80
2023/04/24 00:31:27;;;;;;;;;0.00;0.00;;;;;;;;5017855;28;45326;-80
2023/04/24 00:33:52;;;;;;;;;1.00;1.00;;;;;;;;5018105;28;45237;-79
2023/04/24 00:36:20;;;;;;;;;1.00;1.00;;;;;;;;5017924;28;45363;-80
2023/04/24 00:38:45;;;;;;;;;0.75;0.75;;;;;;;;5017860;28;46147;-80
2023/04/24 00:41:10;;;;;;;;;0.00;0.00;;;;;;;;5017419;28;45236;-80
2023/04/24 00:43:36;;;;;;;;;2.67;1.00;;;;;;;;5017752;28;45344;-80
2023/04/24 00:46:01;;;;;;;;;0.00;0.00;;;;;;;;5017640;28;45427;-80
2023/04/24 00:48:27;;;;;;;;;1.00;0.00;;;;;;;;5017475;28;46271;-80
2023/04/24 00:50:52;;;;;;;;;1.00;1.00;;;;;;;;5017542;28;45211;-80
2023/04/24 00:53:17;;;;;;;;;1.00;0.00;;;;;;;;5017842;28;45253;-80
2023/04/24 00:55:43;;;;;;;;;3.00;0.00;;;;;;;;5017279;28;45241;-80
2023/04/24 00:58:08;;;;;;;;;1.25;1.00;;;;;;;;5017217;28;46880;-80
2023/04/24 01:00:33;;;;;;;;;0.00;0.00;;;;;;;;5017450;28;45437;-80
2023/04/24 01:03:01;;;;;;;;;1.00;0.00;;;;;;;;5017593;28;45322;-80
2023/04/24 01:05:27;;;;;;;;;0.00;0.00;;;;;;;;5017331;28;45526;-80
2023/04/24 01:07:52;;;;;;;;;1.00;1.00;;;;;;;;5017796;28;46535;-81
2023/04/24 01:10:20;;;;;;;;;0.00;0.00;;;;;;;;5017057;28;45405;-80
2023/04/24 01:12:45;;;;;;;;;1.25;0.50;;;;;;;;5017037;28;45304;-81
2023/04/24 01:15:10;;;;;;;;;1.00;0.25;;;;;;;;5017239;28;45567;-80
2023/04/24 01:17:36;;;;;;;;;1.00;1.00;;;;;;;;5016933;28;46585;-80
2023/04/24 01:20:04;;;;;;;;;2.00;0.00;;;;;;;;5016986;28;45397;-81
2023/04/24 01:22:29;;;;;;;;;0.50;0.50;;;;;;;;5017270;28;45558;-80
2023/04/24 01:24:54;;;;;;;;;1.75;0.00;;;;;;;;5016785;28;45325;-82
2023/04/24 01:27:20;;;;;;;;;5.00;0.00;;;;;;;;5015767;28;46466;-83
2023/04/24 01:29:45;;;;;;;;;2.00;0.00;;;;;;;;5016838;28;45363;-82
2023/04/24 01:32:10;;;;;;;;;1.25;1.00;;;;;;;;5017109;28;45366;-83
2023/04/24 01:34:37;;;;;;;;;2.00;0.00;;;;;;;;5016965;28;45530;-82
2023/04/24 01:37:02;;;;;;;;;0.00;0.00;;;;;;;;5016860;28;45610;-83
2023/04/24 01:39:28;;;;;;;;;4.33;0.00;;;;;;;;5016456;28;45367;-82
2023/04/24 01:41:53;;;;;;;;;0.50;0.00;;;;;;;;5016810;28;45458;-82
2023/04/24 01:44:18;;;;;;;;;0.00;0.00;;;;;;;;5016896;28;45324;-83
2023/04/24 01:46:44;;;;;;;;;2.33;1.00;;;;;;;;5016639;28;45431;-83
2023/04/24 01:49:09;;;;;;;;;0.00;0.00;;;;;;;;5016756;28;45372;-82
2023/04/24 01:51:34;;;;;;;;;0.00;0.00;;;;;;;;5016885;28;45642;-83
2023/04/24 01:54:00;;;;;;;;;0.25;0.25;;;;;;;;5016383;28;45393;-83
2023/04/24 01:56:25;;;;;;;;;2.00;0.33;;;;;;;;5015280;28;47676;-83
2023/04/24 01:58:52;;;;;;;;;1.75;0.00;;;;;;;;5016583;28;45350;-83
2023/04/24 02:01:20;;;;;;;;;0.00;0.00;;;;;;;;5016619;28;45451;-83
2023/04/24 02:03:45;;;;;;;;;1.00;0.00;;;;;;;;5016602;28;45714;-83
2023/04/24 02:06:11;;;;;;;;;0.33;0.33;;;;;;;;5016437;28;46651;-83
2023/04/24 02:08:36;;;;;;;;;1.75;1.00;;;;;;;;5016151;28;45336;-83
2023/04/24 02:11:02;;;;;;;;;0.00;0.00;;;;;;;;5016632;28;45403;-84
2023/04/24 02:13:27;;;;;;;;;1.00;0.00;;;;;;;;5015105;28;45515;-82
2023/04/24 02:15:52;;;;;;;;;0.00;0.00;;;;;;;;5015968;28;45452;-84
2023/04/24 02:18:17;;;;;;;;;0.00;0.00;;;;;;;;5016358;28;45525;-82
2023/04/24 02:20:42;;;;;;;;;2.00;0.00;;;;;;;;5016533;28;45427;-83
2023/04/24 02:23:08;;;;;;;;;3.33;1.00;;;;;;;;5016348;28;45498;-83
2023/04/24 02:25:33;;;;;;;;;2.00;0.67;;;;;;;;5016025;28;47215;-83
2023/04/24 02:27:58;;;;;;;;;2.00;0.75;;;;;;;;5017114;28;45603;-83
2023/04/24 02:30:23;;;;;;;;;5.00;0.00;;;;;;;;5019831;28;45529;-84
2023/04/24 02:32:49;;;;;;;;;2.00;0.00;;;;;;;;5018763;28;45430;-84
2023/04/24 02:35:14;;;;;;;;;2.75;0.00;;;;;;;;5032550;28;46178;-85
2023/04/24 02:37:39;;;;;;;;;0.00;0.00;;;;;;;;5030840;28;45304;-85
2023/04/24 02:40:05;;;;;;;;;2.00;1.00;;;;;;;;5032208;28;45554;-86
2023/04/24 02:42:31;;;;;;;;;0.75;0.00;;;;;;;;5028950;28;45321;-85
2023/04/24 02:44:56;;;;;;;;;2.00;0.00;;;;;;;;5018338;28;45498;-85
2023/04/24 02:47:21;;;;;;;;;0.00;0.00;;;;;;;;5015976;28;45405;-84
2023/04/24 02:49:46;;;;;;;;;3.00;1.00;;;;;;;;5016095;28;45273;-84
2023/04/24 02:52:11;;;;;;;;;1.33;1.00;;;;;;;;5015831;28;45387;-84
2023/04/24 02:54:36;;;;;;;;;0.00;0.00;;;;;;;;5016079;28;45416;-84
2023/04/24 02:57:02;;;;;;;;;0.00;0.00;;;;;;;;5015973;28;45526;-84
2023/04/24 02:59:28;;;;;;;;;1.50;0.00;;;;;;;;5015754;28;45887;-83
2023/04/24 03:01:54;;;;;;;;;1.00;1.00;;;;;;;;5015824;28;45366;-83
2023/04/24 03:04:20;;;;;;;;;0.00;0.00;;;;;;;;5015588;28;46389;-83
2023/04/24 03:06:45;;;;;;;;;0.00;0.00;;;;;;;;5015476;28;45711;-83
2023/04/24 03:09:11;;;;;;;;;0.75;0.00;;;;;;;;5015764;28;45385;-83
2023/04/24 03:11:36;;;;;;;;;0.00;0.00;;;;;;;;5015415;28;45420;-84
2023/04/24 03:14:01;;;;;;;;;0.00;0.00;;;;;;;;5015471;28;46625;-83
2023/04/24 03:16:26;;;;;;;;;0.50;0.00;;;;;;;;5015745;28;45426;-84
2023/04/24 03:18:52;;;;;;;;;2.00;0.00;;;;;;;;5015467;28;45593;-85
2023/04/24 03:21:17;;;;;;;;;1.00;1.00;;;;;;;;5015774;28;45480;-83
2023/04/24 03:23:42;;;;;;;;;0.00;0.00;;;;;;;;5015347;28;45427;-84
2023/04/24 03:26:07;;;;;;;;;0.00;0.00;;;;;;;;5015495;28;45400;-84
2023/04/24 03:28:32;;;;;;;;;0.00;0.00;;;;;;;;5016399;28;45325;-84
2023/04/24 03:30:58;;;;;;;;;0.00;0.00;;;;;;;;5019017;28;45360;-83
2023/04/24 03:33:23;;;;;;;;;0.00;0.00;;;;;;;;5017157;28;47126;-81
2023/04/24 03:35:48;;;;;;;;;2.00;1.00;;;;;;;;5018737;28;45308;-83
2023/04/24 03:38:13;;;;;;;;;0.00;0.00;;;;;;;;5018713;28;45467;-83
2023/04/24 03:40:38;;;;;;;;;1.00;1.00;;;;;;;;5018775;28;45495;-84
2023/04/24 03:43:04;;;;;;;;;1.50;1.50;;;;;;;;5018492;28;47000;-83
2023/04/24 03:45:29;;;;;;;;;1.67;1.00;;;;;;;;5017122;28;45558;-84
2023/04/24 03:47:54;;;;;;;;;2.00;0.00;;;;;;;;5018638;28;45341;-83
2023/04/24 03:50:20;;;;;;;;;0.00;0.00;;;;;;;;5018730;28;45357;-83
2023/04/24 03:52:45;;;;;;;;;0.00;0.00;;;;;;;;5018431;28;45202;-84
2023/04/24 03:55:12;;;;;;;;;1.00;1.00;;;;;;;;5017366;28;45265;-83
2023/04/24 03:57:37;;;;;;;;;0.00;0.00;;;;;;;;5018786;28;45286;-85
2023/04/24 04:00:04;;;;;;;;;0.00;0.00;;;;;;;;5017786;28;45323;-87
2023/04/24 04:02:29;;;;;;;;;0.25;0.00;;;;;;;;5018174;28;45856;-83
2023/04/24 04:04:54;;;;;;;;;1.00;0.00;;;;;;;;5018260;28;45405;-83
2023/04/24 04:07:20;;;;;;;;;0.67;0.00;;;;;;;;5018699;28;45369;-83
2023/04/24 04:09:45;;;;;;;;;1.00;0.00;;;;;;;;5018403;28;45490;-83
2023/04/24 04:12:10;;;;;;;;;0.00;0.00;;;;;;;;5017762;28;46477;-84
2023/04/24 04:14:35;;;;;;;;;2.00;0.00;;;;;;;;5018316;28;45394;-84
2023/04/24 04:17:01;;;;;;;;;1.00;1.00;;;;;;;;5016803;28;45943;-84
2023/04/24 04:19:26;;;;;;;;;0.67;0.67;;;;;;;;5018183;28;45458;-83
2023/04/24 04:21:53;;;;;;;;;1.00;0.00;;;;;;;;5017965;28;45499;-83
2023/04/24 04:24:20;;;;;;;;;4.00;0.00;;;;;;;;5018076;28;45802;-83
2023/04/24 04:26:46;;;;;;;;;0.75;0.75;;;;;;;;5018173;28;45474;-84
2023/04/24 04:29:12;;;;;;;;;0.25;0.00;;;;;;;;5018241;28;45532;-85
2023/04/24 04:31:37;;;;;;;;;0.00;0.00;;;;;;;;5016268;28;47255;-85
2023/04/24 04:34:02;;;;;;;;;1.00;0.33;;;;;;;;5017894;28;45410;-85
2023/04/24 04:36:29;;;;;;;;;0.00;0.00;;;;;;;;5018079;28;45739;-84
2023/04/24 04:38:54;;;;;;;;;0.00;0.00;;;;;;;;5017449;28;45562;-83
2023/04/24 04:41:20;;;;;;;;;0.00;0.00;;;;;;;;5017458;28;47089;-85
2023/04/24 04:43:46;;;;;;;;;0.25;0.00;;;;;;;;5017699;28;45488;-84
2023/04/24 04:46:11;;;;;;;;;1.00;0.00;;;;;;;;5017409;28;45477;-84
2023/04/24 04:48:37;;;;;;;;;1.00;1.00;;;;;;;;5016603;28;45404;-84
2023/04/24 04:51:02;;;;;;;;;0.75;0.00;;;;;;;;5017595;28;46432;-83
2023/04/24 04:53:27;;;;;;;;;1.00;1.00;;;;;;;;5017582;28;45372;-83
2023/04/24 04:55:52;;;;;;;;;0.00;0.00;;;;;;;;5017722;28;45300;-83
2023/04/24 04:58:18;;;;;;;;;2.25;0.25;;;;;;;;5017710;28;45354;-84
2023/04/24 05:00:44;;;;;;;;;0.33;0.33;;;;;;;;5017357;28;46526;-83
2023/04/24 05:03:09;;;;;;;;;0.50;0.25;;;;;;;;5017306;28;45456;-84
2023/04/24 05:05:34;;;;;;;;;2.00;2.00;;;;;;;;5017508;28;45367;-84
2023/04/24 05:07:59;;;;;;;;;1.00;1.00;;;;;;;;5017480;28;45493;-83
2023/04/24 05:10:24;;;;;;;;;2.67;2.00;;;;;;;;5017233;28;45373;-83
2023/04/24 05:12:50;;;;;;;;;1.75;0.00;;;;;;;;5017144;28;45553;-84
2023/04/24 05:15:15;;;;;;;;;1.00;1.00;;;;;;;;5017034;28;45405;-84
2023/04/24 05:17:40;;;;;;;;;0.67;0.67;;;;;;;;5017378;28;45285;-83
2023/04/24 05:20:06;;;;;;;;;1.00;1.00;;;;;;;;5017075;28;46271;-84
2023/04/24 05:22:31;;;;;;;;;2.50;1.00;;;;;;;;5016978;28;45364;-83
2023/04/24 05:24:57;;;;;;;;;0.00;0.00;;;;;;;;5017241;28;45214;-83
2023/04/24 05:27:22;;;;;;;;;4.50;0.00;;;;;;;;5017223;28;45217;-83
2023/04/24 05:29:47;;;;;;;;;2.00;2.00;;;;;;;;5016539;28;45950;-84
2023/04/24 05:32:12;;;;;;;;;3.00;1.00;;;;;;;;5017027;28;45246;-83
2023/04/24 05:34:37;;;;;;;;;2.00;1.00;;;;;;;;5016932;28;45502;-84
2023/04/24 05:37:03;;;;;;;;;2.00;0.33;;;;;;;;5017088;28;45614;-83
2023/04/24 05:39:28;;;;;;;;;1.25;1.25;;;;;;;;5016807;28;46354;-83
2023/04/24 05:41:54;;;;;;;;;1.25;1.25;;;;;;;;5015456;28;45514;-83
2023/04/24 05:44:20;;;;;;;;;2.00;1.00;;;;;;;;5016696;28;45218;-83
2023/04/24 05:46:45;;;;;;;;;2.00;1.00;;;;;;;;5016753;28;45220;-83
2023/04/24 05:49:10;;;;;;;;;5.00;2.00;;;;;;;;5015266;28;47545;-83
2023/04/24 05:51:35;;;;;;;;;1.75;1.25;;;;;;;;5015739;28;45274;-84
2023/04/24 05:54:02;;;;;;;;;1.50;0.25;;;;;;;;5016867;28;45283;-83
2023/04/24 05:56:28;;;;;;;;;2.75;1.00;;;;;;;;5016740;28;45370;-83
2023/04/24 05:58:53;;;;;;;;;2.00;2.00;;;;;;;;5015994;28;45520;-84
2023/04/24 06:01:19;;;;;;;;;1.00;0.67;;;;;;;;5016460;28;45429;-83
2023/04/24 06:03:44;;;;;;;;;2.00;2.00;;;;;;;;5016547;28;45744;-83
2023/04/24 06:06:10;;;;;;;;;1.00;1.00;;;;;;;;5016488;28;45534;-84
2023/04/24 06:08:35;;;;;;;;;1.67;1.67;;;;;;;;5016488;28;45562;-84
2023/04/24 06:11:00;;;;;;;;;3.00;2.00;;;;;;;;5016185;28;45435;-84
2023/04/24 06:13:26;;;;;;;;;1.00;1.00;;;;;;;;4996526;28;45480;-84
2023/04/24 06:15:51;;;;;;;;;5.00;1.67;;;;;;;;4997092;28;45482;-86
2023/04/24 06:18:16;;;;;;;;;2.00;2.00;;;;;;;;4996697;28;45418;-84
2023/04/24 06:20:41;;;;;;;;;3.00;2.25;;;;;;;;4996324;28;45492;-84
2023/04/24 06:23:06;;;;;;;;;3.00;2.00;;;;;;;;5003203;28;45352;-85
2023/04/24 06:25:32;;;;;;;;;3.00;1.33;;;;;;;;5005103;28;45487;-87
2023/04/24 06:27:57;;;;;;;;;3.00;2.50;;;;;;;;4996370;28;47318;-86
2023/04/24 06:30:22;;;;;;;;;5.50;1.50;;;;;;;;4996448;28;45543;-85
2023/04/24 06:32:47;;;;;;;;;2.75;2.00;;;;;;;;4995033;28;45297;-84
2023/04/24 06:35:13;;;;;;;;;1.33;1.33;;;;;;;;4998519;28;45262;-86
2023/04/24 06:37:39;;;;;;;;;6.00;4.33;;;;;;;;4998370;28;48397;-90
2023/04/24 06:40:08;;;;;;;;;5.00;2.00;;;;;;;;5001792;28;45854;-88
2023/04/24 06:42:34;;;;;;;;;3.75;1.75;;;;;;;;5001866;28;45814;-83
2023/04/24 06:45:00;;;;;;;;;2.00;2.00;;;;;;;;4996142;28;45591;-85
2023/04/24 06:47:25;;;;;;;;;5.00;2.00;;;;;;;;5015175;28;47112;-86
2023/04/24 06:49:52;;;;;;;;;5.00;2.00;;;;;;;;5015105;28;46173;-88
2023/04/24 06:52:17;;;;;;;;;1.00;0.00;;;;;;;;5016473;28;45316;-88
2023/04/24 06:54:42;;;;;;;;;5.00;2.25;;;;;;;;5016097;28;45189;-87
2023/04/24 06:57:08;;;;;;;;;3.67;3.00;;;;;;;;5010072;28;47214;-87
2023/04/24 06:59:33;;;;;;;;;4.00;2.75;;;;;;;;4996042;28;45225;-88
2023/04/24 07:01:58;;;;;;;;;4.33;3.00;;;;;;;;5012537;28;45395;-92
2023/04/24 07:04:24;;;;;;;;;5.75;2.00;;;;;;;;5008419;28;45214;-87
2023/04/24 07:06:51;;;;;;;;;6.00;2.00;;;;;;;;5001088;28;46394;-89
2023/04/24 07:09:18;;;;;;;;;3.00;2.50;;;;;;;;5000764;28;45781;-89
2023/04/24 07:11:44;;;;;;;;;4.75;2.00;;;;;;;;5012333;28;45349;-86
2023/04/24 07:14:09;;;;;;;;;3.00;2.00;;;;;;;;5017683;28;45367;-87
2023/04/24 07:16:35;;;;;;;;;4.00;2.75;;;;;;;;5019363;28;46032;-90
2023/04/24 07:19:00;;;;;;;;;4.00;2.00;;;;;;;;5017107;28;45549;-88
2023/04/24 07:21:25;;;;;;;;;5.33;3.00;;;;;;;;5014999;28;45415;-88
2023/04/24 07:23:51;;;;;;;;;5.67;4.33;;;;;;;;5018029;28;45435;-88
2023/04/24 07:26:16;;;;;;;;;2.50;2.00;;;;;;;;5019192;28;45235;-89
2023/04/24 07:28:41;;;;;;;;;5.33;5.00;;;;;;;;5017582;28;45541;-87
2023/04/24 07:31:06;;;;;;;;;6.33;3.00;;;;;;;;5016752;28;45283;-85
2023/04/24 07:33:32;;;;;;;;;5.25;3.25;;;;;;;;5003130;28;45342;-89
2023/04/24 07:35:58;;;;;;;;;2.25;2.25;;;;;;;;5002835;28;47355;-89
2023/04/24 07:38:25;;;;;;;;;3.00;3.00;;;;;;;;5018743;28;45402;-87
2023/04/24 07:40:50;;;;;;;;;10.50;4.00;;;;;;;;5018402;28;45483;-86
2023/04/24 07:43:16;;;;;;;;;6.00;3.00;;;;;;;;5018785;28;45337;-86
2023/04/24 07:45:41;;;;;;;;;3.00;3.00;;;;;;;;5018617;28;46292;-86
2023/04/24 07:48:08;;;;;;;;;5.33;3.00;;;;;;;;5018478;28;45285;-85
2023/04/24 07:50:34;;;;;;;;;2.25;2.25;;;;;;;;5018429;28;45399;-87
2023/04/24 07:52:59;;;;;;;;;5.75;3.25;;;;;;;;5018787;28;45385;-87
2023/04/24 07:55:25;;;;;;;;;3.00;3.00;;;;;;;;5018322;28;46350;-87
2023/04/24 07:57:50;;;;;;;;;2.67;2.33;;;;;;;;5017444;28;45388;-87
2023/04/24 08:00:16;;;;;;;;;7.00;1.00;;;;;;;;5017259;28;45266;-88
2023/04/24 08:02:41;;;;;;;;;5.00;3.00;;;;;;;;5017116;28;45672;-87
2023/04/24 08:05:06;;;;;;;;;3.67;3.67;;;;;;;;5017268;28;47010;-87
2023/04/24 08:07:32;;;;;;;;;5.00;1.75;;;;;;;;5018437;28;45465;-86
2023/04/24 08:09:57;;;;;;;;;12.33;3.00;;;;;;;;5018223;28;45230;-87
2023/04/24 08:12:22;;;;;;;;;8.33;3.00;;;;;;;;5018348;28;45297;-87
2023/04/24 08:14:47;;;;;;;;;5.00;4.25;;;;;;;;5017329;28;46041;-86
2023/04/24 08:17:12;;;;;;;;;4.00;2.33;;;;;;;;5015247;28;45340;-85
2023/04/24 08:19:42;;;;;;;;;3.67;2.33;;;;;;;;5017792;28;45376;-86
2023/04/24 08:22:07;;;;;;;;;3.00;3.00;;;;;;;;5018022;28;45855;-86
2023/04/24 08:24:32;;;;;;;;;7.00;4.33;;;;;;;;5016473;28;47378;-86
2023/04/24 08:26:58;;;;;;;;;2.67;2.00;;;;;;;;5016668;28;46040;-87
2023/04/24 08:29:23;;;;;;;;;6.50;4.00;;;;;;;;5018127;28;45290;-86
2023/04/24 08:31:48;;;;;;;;;2.67;1.33;;;;;;;;5018371;28;45343;-86
2023/04/24 08:34:13;;;;;;;;;3.00;3.00;;;;;;;;5017442;28;45505;-88
2023/04/24 08:36:40;;;;;;;;;4.00;4.00;;;;;;;;5017904;28;45407;-85
2023/04/24 08:39:05;;;;;;;;;3.00;3.00;;;;;;;;5017369;28;45324;-86
2023/04/24 08:41:31;;;;;;;;;6.00;4.00;;;;;;;;5017733;28;45368;-86
2023/04/24 08:43:58;;;;;;;;;6.75;4.50;;;;;;;;5017805;28;45451;-86
2023/04/24 08:46:24;;;;;;;;;6.00;3.75;;;;;;;;5016122;28;45474;-84
2023/04/24 08:48:50;;;;;;;;;7.75;5.50;;;;;;;;5017719;28;45234;-86
2023/04/24 08:51:16;;;;;;;;;7.00;5.50;;;;;;;;5017784;28;45364;-86
2023/04/24 08:53:42;;;;;;;;;9.25;4.00;;;;;;;;5017136;28;46650;-86
2023/04/24 08:56:07;;;;;;;;;11.75;7.25;;;;;;;;5017332;28;45545;-87
2023/04/24 08:58:33;;;;;;;;;8.67;6.00;;;;;;;;5016129;28;45398;-87
2023/04/24 09:00:58;;;;;;;;;7.00;4.00;;;;;;;;5015821;28;45442;-86
2023/04/24 09:03:24;;;;;;;;;11.00;6.00;;;;;;;;5015822;28;46283;-86
2023/04/24 09:05:50;;;;;;;;;8.75;3.75;;;;;;;;5017414;28;45335;-86
2023/04/24 09:08:17;;;;;;;;;7.50;3.50;;;;;;;;5015921;28;45574;-87
2023/04/24 09:10:43;;;;;;;;;4.50;3.00;;;;;;;;5016262;28;45531;-86
2023/04/24 09:13:09;;;;;;;;;2.50;2.50;;;;;;;;5016957;28;45518;-87
2023/04/24 09:15:35;;;;;;;;;6.25;4.00;;;;;;;;5017674;28;45741;-88
2023/04/24 09:18:01;;;;;;;;;9.00;3.75;;;;;;;;5016129;28;45860;-87
2023/04/24 09:20:26;;;;;;;;;13.25;4.00;;;;;;;;5011042;28;45412;-87
2023/04/24 09:22:53;;;;;;;;;9.67;6.00;;;;;;;;5003837;28;45435;-87
2023/04/24 09:25:18;;;;;;;;;7.50;6.25;;;;;;;;5011827;28;45969;-85
2023/04/24 09:27:45;;;;;;;;;8.67;4.67;;;;;;;;5016137;28;45498;-87
2023/04/24 09:30:10;;;;;;;;;7.50;7.25;;;;;;;;5016688;28;45277;-85
2023/04/24 09:32:35;;;;;;;;;7.50;6.00;;;;;;;;5016739;28;45887;-85
2023/04/24 09:35:07;;;;;;;;;4.67;3.00;;;;;;;;5014640;28;45402;-87
2023/04/24 09:37:37;;;;;;;;;3.25;2.00;;;;;;;;4998206;28;45323;-85
2023/04/24 09:40:10;;;;;;;;;9.00;8.00;;;;;;;;5017307;28;45349;-86
2023/04/24 09:42:36;;;;;;;;;8.25;4.25;;;;;;;;5016806;28;45519;-87
2023/04/24 09:45:01;;;;;;;;;9.33;3.00;;;;;;;;5015063;28;45534;-86
2023/04/24 09:47:26;;;;;;;;;5.75;5.75;;;;;;;;5016814;28;45460;-87
2023/04/24 09:49:57;;;;;;;;;11.67;6.00;;;;;;;;5016864;28;45557;-87
2023/04/24 09:52:22;;;;;;;;;6.75;5.75;;;;;;;;5001283;28;47487;-86
2023/04/24 09:54:52;;;;;;;;;5.75;2.25;;;;;;;;5014423;28;45389;-87
2023/04/24 09:57:17;;;;;;;;;6.25;3.00;;;;;;;;5015623;28;45300;-86
2023/04/24 09:59:44;;;;;;;;;7.00;4.00;;;;;;;;5016686;28;45228;-87
2023/04/24 10:02:19;;;;;;;;;8.25;4.00;;;;;;;;5016650;28;45618;-87
2023/04/24 10:04:55;;;;;;;;;6.25;4.25;;;;;;;;5016297;28;45377;-87
2023/04/24 10:07:20;;;;;;;;;5.00;2.75;;;;;;;;5011411;28;45406;-86
2023/04/24 10:09:45;;;;;;;;;9.00;3.00;;;;;;;;5004445;28;45551;-87
2023/04/24 10:12:11;;;;;;;;;12.00;4.00;;;;;;;;5016648;28;45388;-87
2023/04/24 10:14:36;;;;;;;;;7.75;3.75;;;;;;;;5014812;28;45783;-86
2023/04/24 10:17:02;;;;;;;;;8.00;4.00;;;;;;;;5013784;28;45395;-88
2023/04/24 10:19:29;;;;;;;;;3.50;2.50;;;;;;;;5014643;28;45662;-86
2023/04/24 10:21:55;;;;;;;;;4.00;3.00;;;;;;;;5016002;28;45637;-89
2023/04/24 10:24:21;;;;;;;;;4.00;4.00;;;;;;;;5016035;28;45676;-87
2023/04/24 10:26:48;;;;;;;;;6.33;5.00;;;;;;;;5016438;28;45404;-87
2023/04/24 10:29:15;;;;;;;;;7.00;4.25;;;;;;;;5016091;28;45414;-89
2023/04/24 10:31:41;;;;;;;;;8.00;5.00;;;;;;;;5013752;28;45554;-87
2023/04/24 10:34:07;;;;;;;;;6.00;3.50;;;;;;;;5015796;28;45573;-89
2023/04/24 10:36:36;;;;;;;;;7.25;4.00;;;;;;;;5015478;28;45380;-87
2023/04/24 10:39:02;;;;;;;;;5.00;4.00;;;;;;;;5015435;28;45630;-87
2023/04/24 10:41:29;;;;;;;;;11.00;4.00;;;;;;;;5014551;28;45557;-88
2023/04/24 10:44:08;;;;;;;;;4.00;4.00;;;;;;;;5016163;28;45481;-87
2023/04/24 10:46:33;;;;;;;;;6.00;3.50;;;;;;;;5015221;28;45369;-87
2023/04/24 10:48:59;;;;;;;;;5.00;4.00;;;;;;;;5004353;28;45423;-86
2023/04/24 10:51:25;;;;;;;;;5.00;4.00;;;;;;;;5014373;28;47675;-84
2023/04/24 10:53:51;;;;;;;;;8.50;2.75;;;;;;;;5007423;28;45573;-87
2023/04/24 10:56:17;;;;;;;;;5.00;2.75;;;;;;;;4999021;28;45410;-86
2023/04/24 10:58:49;;;;;;;;;9.50;3.75;;;;;;;;5035884;28;45462;-88
2023/04/24 11:01:25;;;;;;;;;3.00;3.00;;;;;;;;5035746;28;46463;-87
2023/04/24 11:03:57;;;;;;;;;4.75;4.00;;;;;;;;5036372;28;45246;-90
2023/04/24 11:06:51;;;;;;;;;6.00;3.75;;;;;;;;5039392;28;45857;-95
2023/04/24 11:09:20;;;;;;;;;4.50;4.25;;;;;;;;5013789;28;45445;-87
2023/04/24 11:12:24;;;;;;;;;3.25;3.25;;;;;;;;5016016;28;47232;-96
2023/04/24 11:15:57;;;;;;;;;8.00;4.25;;;;;;;;5012223;28;45240;-95
2023/04/24 11:21:24;;;;;;;;;6.75;4.00;;;;;;;;4861738;29;45824;-92
2023/04/24 11:24:18;;;;;;;;;4.00;4.00;;;;;;;;4860830;29;46622;-93
2023/04/24 11:27:04;;;;;;;;;8.00;3.25;;;;;;;;4851921;29;45536;-95
2023/04/24 11:29:56;;;;;;;;;9.75;4.00;;;;;;;;4843155;29;45389;-95
2023/04/24 11:32:39;;;;;;;;;5.00;3.00;;;;;;;;4841823;29;45560;-94
2023/04/24 11:38:22;;;;;;;;;4.75;3.00;;;;;;;;4829766;29;45216;-92
2023/04/24 11:44:37;;;;;;;;;4.00;3.00;;;;;;;;4832360;29;45388;-94
2023/04/24 11:53:30;;;;;;;;;3.75;3.00;;;;;;;;4828852;29;45273;-91
2023/04/24 11:56:12;;;;;;;;;1.75;1.00;;;;;;;;4812139;29;45264;-87
2023/04/24 11:58:49;;;;;;;;;4.00;2.00;;;;;;;;4911350;28;45590;-93
2023/04/24 12:01:48;;;;;;;;;1.50;1.50;;;;;;;;4959257;28;45497;-91
2023/04/24 12:04:36;;;;;;;;;3.75;2.50;;;;;;;;4959381;28;45391;-92
2023/04/24 12:07:01;;;;;;;;;4.00;1.75;;;;;;;;4959281;28;45558;-92
2023/04/24 12:09:26;;;;;;;;;1.75;1.75;;;;;;;;4942280;28;47103;-93
2023/04/24 12:11:56;;;;;;;;;2.00;2.00;;;;;;;;4942555;28;45768;-90
2023/04/24 12:14:22;;;;;;;;;3.00;1.00;;;;;;;;4958969;28;45694;-91
2023/04/24 12:16:48;;;;;;;;;4.00;2.00;;;;;;;;4941649;28;45418;-91
2023/04/24 12:19:20;;;;;;;;;4.00;2.00;;;;;;;;4942851;28;47075;-92
2023/04/24 12:21:58;;;;;;;;;3.00;0.25;;;;;;;;4958647;28;45237;-88
2023/04/24 12:24:23;;;;;;;;;2.00;1.00;;;;;;;;4942332;28;45522;-92
2023/04/24 12:26:48;;;;;;;;;2.00;1.00;;;;;;;;4942128;28;45342;-92
2023/04/24 12:29:20;;;;;;;;;2.67;1.00;;;;;;;;4945617;28;48081;-91
2023/04/24 12:31:45;;;;;;;;;2.00;0.75;;;;;;;;5000904;28;45883;-92
2023/04/24 12:34:23;;;;;;;;;3.67;1.33;;;;;;;;5019350;28;45228;-89
2023/04/24 12:36:49;;;;;;;;;0.75;0.75;;;;;;;;5001186;28;45472;-91
2023/04/24 12:39:15;;;;;;;;;0.75;0.75;;;;;;;;5019291;28;45506;-94
2023/04/24 12:41:50;;;;;;;;;1.25;1.25;;;;;;;;5018939;28;45757;-94
2023/04/24 12:44:15;;;;;;;;;1.00;1.00;;;;;;;;5001570;28;45464;-93
2023/04/24 12:46:43;;;;;;;;;1.00;1.00;;;;;;;;5025992;28;45552;-92
2023/04/24 12:49:39;;;;;;;;;2.25;2.00;;;;;;;;5038922;28;46292;-94
2023/04/24 12:52:04;;;;;;;;;1.00;1.00;;;;;;;;4957924;28;45209;-86
2023/04/24 12:54:32;;;;;;;;;0.25;0.25;;;;;;;;4938205;28;46605;-92
2023/04/24 12:56:57;;;;;;;;;0.75;0.75;;;;;;;;4938568;28;45323;-92
2023/04/24 12:59:22;;;;;;;;;5.00;1.00;;;;;;;;4938396;28;46557;-90
2023/04/24 13:01:48;;;;;;;;;4.00;1.00;;;;;;;;4938078;28;46004;-90
2023/04/24 13:04:13;;;;;;;;;1.00;1.00;;;;;;;;4938565;28;45451;-90
2023/04/24 13:06:38;;;;;;;;;1.00;1.00;;;;;;;;4922552;28;45512;-92
2023/04/24 13:09:03;;;;;;;;;2.50;1.00;;;;;;;;4938265;28;46513;-91
2023/04/24 13:11:29;;;;;;;;;0.00;0.00;;;;;;;;4939043;28;45453;-93
2023/04/24 13:13:59;;;;;;;;;0.00;0.00;;;;;;;;4922439;28;45395;-93
2023/04/24 13:16:24;;;;;;;;;0.00;0.00;;;;;;;;4938453;28;45537;-92
2023/04/24 13:18:50;;;;;;;;;0.00;0.00;;;;;;;;4921933;28;47356;-91
2023/04/24 13:21:15;;;;;;;;;0.67;0.67;;;;;;;;4938015;28;45290;-88
2023/04/24 13:23:58;;;;;;;;;0.75;0.75;;;;;;;;4937551;28;45552;-94
2023/04/24 13:26:24;;;;;;;;;2.00;1.00;;;;;;;;4922582;28;45471;-92
2023/04/24 13:28:52;;;;;;;;;1.00;1.00;;;;;;;;4989323;28;45742;-87
2023/04/24 13:31:17;;;;;;;;;0.50;0.00;;;;;;;;5018301;28;45365;-88
2023/04/24 13:33:42;;;;;;;;;2.25;0.75;;;;;;;;5000861;28;45497;-90
2023/04/24 13:36:08;;;;;;;;;2.00;0.00;;;;;;;;5010213;28;45592;-90
2023/04/24 13:38:34;;;;;;;;;0.33;0.33;;;;;;;;5020183;28;47570;-90
2023/04/24 13:44:28;;;;;;;;;2.00;1.00;;;;;;;;4934199;28;45634;-94
2023/04/24 13:46:57;;;;;;;;;1.00;1.00;;;;;;;;4938080;28;45380;-92
2023/04/24 13:49:24;;;;;;;;;0.00;0.00;;;;;;;;4938337;28;45629;-90
2023/04/24 13:51:50;;;;;;;;;0.50;0.50;;;;;;;;4935299;28;45491;-90
2023/04/24 13:54:26;;;;;;;;;1.00;1.00;;;;;;;;4937800;28;45465;-94
2023/04/24 13:56:57;;;;;;;;;4.00;1.00;;;;;;;;4921573;28;45613;-96
2023/04/24 13:59:22;;;;;;;;;0.00;0.00;;;;;;;;4937841;28;46305;-94
2023/04/24 14:02:20;;;;;;;;;1.00;1.00;;;;;;;;4923027;28;45414;-92
2023/04/24 14:04:48;;;;;;;;;1.00;1.00;;;;;;;;4899569;29;45407;-91
2023/04/24 14:07:18;;;;;;;;;1.75;1.00;;;;;;;;4899854;29;45309;-91
2023/04/24 14:09:43;;;;;;;;;1.75;0.50;;;;;;;;4883138;29;46889;-91
2023/04/24 14:12:12;;;;;;;;;3.75;1.00;;;;;;;;4892234;29;45453;-92
2023/04/24 14:15:08;;;;;;;;;;;;;;;;;;;;;
2023/04/24 14:17:34;;;;;;;;;0.00;0.00;;;;;;;;4848713;28;70351;-86
2023/04/24 14:20:00;;;;;;;;;1.75;1.75;;;;;;;;4889563;28;47227;-85
2023/04/24 14:22:25;;;;;;;;;1.00;1.00;;;;;;;;4992428;28;45468;-86
2023/04/24 14:24:51;;;;;;;;;1.00;1.00;;;;;;;;4993667;28;45416;-89
2023/04/24 14:27:16;;;;;;;;;0.75;0.75;;;;;;;;4991579;28;45104;-85
2023/04/24 14:29:41;;;;;;;;;0.00;0.00;;;;;;;;4993362;28;47268;-87
2023/04/24 14:32:15;;;;;;;;;1.00;1.00;;;;;;;;4992343;28;45665;-91
2023/04/24 14:34:43;;;;;;;;;1.00;1.00;;;;;;;;4977728;28;45441;-87
2023/04/24 14:37:08;;;;;;;;;0.00;0.00;;;;;;;;4968383;28;45785;-90
2023/04/24 14:39:33;;;;;;;;;1.00;0.00;;;;;;;;4993897;28;47313;-85
2023/04/24 14:41:59;;;;;;;;;1.33;0.00;;;;;;;;5035563;28;45318;-88
2023/04/24 14:44:24;;;;;;;;;0.00;0.00;;;;;;;;5002383;28;45431;-86
2023/04/24 14:46:50;;;;;;;;;0.00;0.00;;;;;;;;5035549;28;45462;-86
2023/04/24 14:49:15;;;;;;;;;2.00;0.00;;;;;;;;5015165;28;47032;-87
2023/04/24 14:51:41;;;;;;;;;0.75;0.00;;;;;;;;5030144;28;45404;-85
2023/04/24 14:54:06;;;;;;;;;1.50;0.25;;;;;;;;5035103;28;45798;-85
2023/04/24 14:56:32;;;;;;;;;2.00;1.00;;;;;;;;5017317;28;45549;-85
2023/04/24 14:58:57;;;;;;;;;3.00;1.00;;;;;;;;5017744;28;46967;-85
2023/04/24 15:01:23;;;;;;;;;0.50;0.50;;;;;;;;5035079;28;45409;-86
2023/04/24 15:03:49;;;;;;;;;2.00;0.25;;;;;;;;5017229;28;45820;-87